x

Buoy I01 - Eastern Maine Shelf (44034) Wave Buoy

3:04 - Sat 24th Sep 2016 All times are EDT. -4 hours from GMT.

  • Sig Wave height 2.3ft
  • Peak Period 3s
  • Wind
    16mph, 18mph gusts
  • Sea Temp 56°f
  • Air Temp 58°f
  • Sea Pressure 1015.4mb
  • Buoy I01 - Eastern Maine Shelf
  • Buoy I01 - Eastern Maine Shelf

More Historic Weather Station data

Upgrade to MSW Pro to gain access to the past 30 days of data for over 8000 Wavebouys and Weather Stations around the globe.

Join Pro

Comparision Forecast

View Surf forecast
   
sam. 09/24 3:04 2.5ft 3s 16 18 mph 1015.4mb 56f 58f
2:04 2.5ft 3s 18 20 mph 1016mb 56f 57f
1:04 1.6ft 3s 13 16 mph 1016.7mb 56f 56f
12:04 2ft 3s 13 16 mph 1017.6mb 56f 55f
11:04 2ft 3s 18 20 mph 1018.1mb 56f 53f
10:04 2.5ft 3s 18 22 mph 1018.1mb 56f 53f
9:04 2.5ft 3s 20 22 mph 1018.1mb 55f 53f
8:04 2.5ft 3s 18 22 mph 1018.1mb 55f 53f
7:04 1.3ft 3s 13 16 mph 1018.6mb 55f 53f
6:04 1.3ft 3s 11 13 mph 1018.2mb 55f 54f
5:04 1.6ft 3s 9 11 mph 1017.4mb 55f 53f
4:04 1.3ft 3s 9 11 mph 1017.4mb 55f 54f
3:04 1.6ft 4s 11 13 mph 1017.8mb 55f 54f
2:04 2ft 4s 11 16 mph 1017.9mb 56f 55f
1:04 2ft 4s 16 20 mph 1017.7mb 56f 55f
12:04 2.5ft 3s 16 18 mph 1017.4mb 56f 55f
ven. 09/23 11:04 2.5ft 3s 16 18 mph 1017.4mb 56f 55f
10:04 2.5ft 3s 16 18 mph 1017.2mb 56f 55f
9:04 2.5ft 3s 16 18 mph 1017.3mb 56f 55f
8:04 2.5ft 3s 16 18 mph 1017.3mb 56f 56f
7:04 2.5ft 3s 20 25 mph 1016.5mb 56f 56f
6:04 2.5ft 5s 18 20 mph 1016.1mb 56f 57f
5:04 3ft 4s 16 20 mph 1015.1mb 56f 57f
4:04 3ft 4s 20 25 mph 1014.9mb 56f 57f
3:04 2.5ft 4s 22 27 mph 1014.1mb 56f 57f
2:04 2ft 5s 13 16 mph 1013.9mb 56f 59f
1:04 2.5ft 4s 7
mph
1013.7mb 57f 59f
12:04 2.5ft 5s 9 11 mph 1014mb 57f 59f
11:04 2.5ft 4s 7
mph
1014mb 56f 59f
10:04 4ft 11s 13 16 mph 1014.7mb 57f 59f
9:04 2.5ft 4s 4 7 mph 1014.8mb 56f 59f
8:04 3ft 4s 13 16 mph 1014.7mb 57f 61f
7:04 2.5ft 4s 18 22 mph 1014.4mb 57f 62f
6:04 2.5ft 4s 18 22 mph 1014.4mb 57f 61f
5:04 2ft 4s 18 20 mph 1014.7mb 57f 61f
4:04 1.3ft 3s 13 16 mph 1015.5mb 57f 60f
3:04 1.6ft 6s 11 13 mph 1016.3mb 57f 60f
2:04 1.6ft 11s 9 11 mph 1017.1mb 57f 60f
1:04 1.6ft 11s 7 9 mph 1017.9mb 57f 59f
12:04 1.6ft 11s 7 9 mph 1018.2mb 57f 60f
jeu. 09/22 11:04 2ft 8s 7
mph
1018.9mb 57f 60f
10:04 1.6ft 11s 4
mph
1019.5mb 57f 59f
9:04 2ft 11s 7
mph
1019.6mb 56f 58f
8:04 1.6ft 8s 4
mph
1019.8mb 57f 58f
7:04 2.5ft 11s 7
mph
1019.4mb 56f 59f
6:04 1.6ft 11s 9 11 mph 1019.3mb 57f 61f
5:04 1.6ft 11s 9 11 mph 1019.3mb 58f 61f
4:04 1.6ft 11s 4 7 mph 1019.5mb 57f 62f
3:04 1.3ft 11s 7 9 mph 1019.5mb 59f 63f
2:04 1.6ft 11s 7 9 mph 1020.1mb 59f 62f
1:04 1.6ft 11s 7 9 mph 1020.7mb 58f 62f
12:04 1.3ft 8s 4
mph
1021.1mb 57f 61f
11:04 1.6ft 11s 2
mph
1021.7mb 57f 61f
10:04 1.6ft 11s 4
mph
1021.6mb 56f 59f
9:04 2ft 11s 4 7 mph 1021.9mb 56f 60f
8:04 2ft 11s 7
mph
1021.4mb 56f 60f
7:04 1.6ft 11s 9
mph
1020.8mb 56f 60f
6:04 1.6ft 11s 7
mph
1020.3mb 56f 58f
5:04 1.6ft 11s 7
mph
1020mb 56f 59f
4:04 2ft 11s 7 9 mph 1019.5mb 56f 59f
3:04 2ft 11s 7
mph
1019mb 56f 59f
2:04 1.3ft 4s 7
mph
1019.4mb 56f 59f
1:04 1.6ft 4s 7
mph
1019.3mb 56f 59f
12:04 1.3ft 4s 9 11 mph 1019.2mb 56f 60f
mer. 09/21 11:04 1.6ft 4s 11 13 mph 1019.3mb 56f 60f
10:04 1.6ft 4s 13
mph
1019.1mb 56f 60f
9:04 1ft 3s 11 13 mph 1019.2mb 56f 60f
8:04 1ft 5s 11 13 mph 1018.9mb 56f 60f
7:04  -   -  11 13 mph 1018.6mb 56f 61f
6:04 1.6ft 6s 9
mph
1018.6mb 56f 61f
5:04 1.6ft 6s 9 11 mph 1018.1mb 57f 61f
4:04  -   -  11 13 mph 1017.9mb 58f 63f
3:04 1.6ft 8s 9 11 mph 1017.9mb 58f 63f
2:04 1.3ft 6s 7 9 mph 1018.1mb 57f 62f
1:04 1.6ft 8s 7 9 mph 1018.9mb 57f 62f
12:04 2ft 8s 7
mph
1019.2mb 57f 62f
11:04 1.6ft 8s 4
mph
1019.7mb 56f 60f
10:04 2ft 8s 2
mph
1019.8mb 57f 59f
9:04 2ft 8s 4 7 mph 1019.3mb 57f 58f
8:04 2ft 8s 4
mph
1018.9mb 57f 58f
7:04 1.6ft 6s 4 7 mph 1018.5mb 57f 56f
6:04 1.6ft 8s 2
mph
1017.8mb 57f 57f
5:04 1.6ft 8s 2
mph
1017mb 56f 57f
4:04 1.6ft 6s 2 4 mph 1016.6mb 56f 57f
3:04 1.6ft 8s 2 4 mph 1016.3mb 56f 58f
2:04 1.6ft 6s 7 9 mph 1016.6mb 56f 58f
1:04 1.6ft 8s 9
mph
1016.6mb 56f 57f
12:04 1.6ft 8s 7
mph
1017mb 56f 58f
mar. 09/20 11:04 0.7ft  -  7
mph
1017.4mb 56f 58f
10:04 2ft 8s 7 9 mph 1017.4mb 56f 58f
9:04 2ft 8s 9
mph
1017.8mb 57f 58f